createdAt,value
2023-02-23T00:01:48.492Z,8.30
2023-02-23T00:04:15.760Z,8.30
2023-02-23T00:06:42.713Z,8.20
2023-02-23T00:09:22.731Z,8.20
2023-02-23T00:11:53.065Z,8.20
2023-02-23T00:14:20.740Z,8.20
2023-02-23T00:16:47.903Z,8.20
2023-02-23T00:19:15.021Z,8.20
2023-02-23T00:21:42.347Z,8.20
2023-02-23T00:24:12.357Z,8.20
2023-02-23T00:26:40.173Z,8.20
2023-02-23T00:29:11.221Z,8.20
2023-02-23T00:31:38.767Z,8.20
2023-02-23T00:34:06.360Z,8.20
2023-02-23T00:36:35.843Z,8.10
2023-02-23T00:39:17.919Z,8.10
2023-02-23T00:41:45.405Z,8.10
2023-02-23T00:44:15.424Z,8.10
2023-02-23T00:46:44.046Z,8.10
2023-02-23T00:49:13.190Z,8.10
2023-02-23T00:51:41.857Z,8.10
2023-02-23T00:54:11.750Z,8.10
2023-02-23T00:56:39.241Z,8.10
2023-02-23T00:59:07.070Z,8.10
2023-02-23T01:01:34.382Z,8.10
2023-02-23T01:04:02.398Z,8.10
2023-02-23T01:06:30.924Z,8.10
2023-02-23T01:08:58.150Z,8.10
2023-02-23T01:11:28.842Z,8.10
2023-02-23T01:13:58.216Z,8.00
2023-02-23T01:16:28.492Z,8.00
2023-02-23T01:18:57.786Z,8.10
2023-02-23T01:21:30.628Z,8.10
2023-02-23T01:23:58.356Z,8.00
2023-02-23T01:26:31.111Z,8.10
2023-02-23T01:29:01.914Z,8.10
2023-02-23T01:31:30.485Z,8.00
2023-02-23T01:34:02.337Z,8.00
2023-02-23T01:36:37.219Z,8.00
2023-02-23T01:39:07.666Z,8.00
2023-02-23T01:41:36.824Z,8.00
2023-02-23T01:44:05.511Z,8.00
2023-02-23T01:46:41.235Z,8.00
2023-02-23T01:49:16.073Z,8.00
2023-02-23T01:51:52.394Z,8.00
2023-02-23T01:54:24.405Z,8.00
2023-02-23T01:56:58.626Z,8.10
2023-02-23T01:59:35.908Z,8.10
2023-02-23T02:02:05.351Z,8.00
2023-02-23T02:04:44.706Z,8.00
2023-02-23T02:07:17.746Z,8.00
2023-02-23T02:10:09.724Z,8.00
2023-02-23T02:12:45.371Z,8.00
2023-02-23T02:15:19.387Z,8.00
2023-02-23T02:18:09.635Z,8.00
2023-02-23T02:20:42.903Z,8.00
2023-02-23T02:23:31.388Z,8.00
2023-02-23T02:26:26.488Z,8.00
2023-02-23T02:29:26.465Z,8.00
2023-02-23T02:32:22.606Z,8.00
2023-02-23T02:35:29.171Z,8.00
2023-02-23T02:38:23.852Z,8.00
2023-02-23T02:41:05.489Z,8.00
2023-02-23T02:43:58.314Z,8.00
2023-02-23T02:46:34.415Z,8.00
2023-02-23T02:49:31.435Z,7.90
2023-02-23T02:52:20.474Z,7.90
2023-02-23T02:54:58.390Z,7.90
2023-02-23T02:57:28.571Z,7.90
2023-02-23T03:00:16.987Z,7.90
2023-02-23T03:03:02.994Z,7.90
2023-02-23T03:06:08.759Z,7.90
2023-02-23T03:09:19.945Z,7.90
2023-02-23T03:12:32.644Z,7.90
2023-02-23T03:15:42.612Z,7.90
2023-02-23T03:18:47.420Z,7.90
2023-02-23T03:21:54.993Z,7.90
2023-02-23T03:24:57.062Z,7.90
2023-02-23T03:27:58.009Z,7.90
2023-02-23T03:30:55.701Z,7.90
2023-02-23T03:34:18.104Z,7.90
2023-02-23T03:37:09.869Z,7.80
2023-02-23T03:40:18.101Z,7.90
2023-02-23T03:43:05.110Z,7.80
2023-02-23T03:45:51.205Z,7.90
2023-02-23T03:48:38.597Z,7.80
2023-02-23T03:51:27.794Z,7.80
2023-02-23T03:54:25.406Z,7.80
2023-02-23T03:57:13.890Z,7.80
2023-02-23T04:00:06.629Z,7.80
2023-02-23T04:03:01.758Z,7.80
2023-02-23T04:05:49.590Z,7.80
2023-02-23T04:08:38.223Z,7.80
2023-02-23T04:11:58.813Z,7.80
2023-02-23T04:14:49.037Z,7.80
2023-02-23T04:17:17.381Z,7.80
2023-02-23T04:19:52.352Z,7.80
2023-02-23T04:22:19.883Z,7.80
2023-02-23T04:24:47.163Z,7.80
2023-02-23T04:27:15.457Z,7.80
2023-02-23T04:29:43.426Z,7.80
2023-02-23T04:32:15.645Z,7.80
2023-02-23T04:34:43.529Z,7.80
2023-02-23T04:37:10.604Z,7.80
2023-02-23T04:39:37.581Z,7.80
2023-02-23T04:42:04.970Z,7.80
2023-02-23T04:44:32.010Z,7.80
2023-02-23T04:46:58.987Z,7.80
2023-02-23T04:49:26.082Z,7.80
2023-02-23T04:51:53.050Z,7.80
2023-02-23T04:54:20.182Z,7.80
2023-02-23T04:56:47.178Z,7.80
2023-02-23T04:59:14.150Z,7.80
2023-02-23T05:01:41.196Z,7.80
2023-02-23T05:04:08.428Z,7.80
2023-02-23T05:06:35.546Z,7.80
2023-02-23T05:09:03.398Z,7.80
2023-02-23T05:11:30.544Z,7.80
2023-02-23T05:13:57.464Z,7.70
2023-02-23T05:16:24.706Z,7.70
2023-02-23T05:18:52.150Z,7.70
2023-02-23T05:21:19.344Z,7.70
2023-02-23T05:23:48.465Z,7.70
2023-02-23T05:26:15.552Z,7.70
2023-02-23T05:28:43.403Z,7.70
2023-02-23T05:31:10.824Z,7.70
2023-02-23T05:33:45.691Z,7.70
2023-02-23T05:36:16.414Z,7.70
2023-02-23T05:38:44.630Z,7.70
2023-02-23T05:41:18.111Z,7.70
2023-02-23T05:43:45.847Z,7.70
2023-02-23T05:46:18.263Z,7.70
2023-02-23T05:48:45.278Z,7.70
2023-02-23T05:51:14.505Z,7.70
2023-02-23T05:53:41.966Z,7.70
2023-02-23T05:56:13.694Z,7.70
2023-02-23T05:58:40.648Z,7.70
2023-02-23T06:01:07.602Z,7.70
2023-02-23T06:03:35.184Z,7.70
2023-02-23T06:06:02.204Z,7.70
2023-02-23T06:08:29.126Z,7.70
2023-02-23T06:10:56.794Z,7.60
2023-02-23T06:13:23.732Z,7.60
2023-02-23T06:15:50.820Z,7.60
2023-02-23T06:18:17.816Z,7.60
2023-02-23T06:20:46.311Z,7.60
2023-02-23T06:23:15.729Z,7.60
2023-02-23T06:25:44.049Z,7.60
2023-02-23T06:28:11.246Z,7.60
2023-02-23T06:30:38.937Z,7.60
2023-02-23T06:33:06.881Z,7.60
2023-02-23T06:35:34.684Z,7.60
2023-02-23T06:38:02.515Z,7.60
2023-02-23T06:40:30.772Z,7.60
2023-02-23T06:42:57.762Z,7.60
2023-02-23T06:45:24.774Z,7.60
2023-02-23T06:47:52.647Z,7.60
2023-02-23T06:50:19.789Z,7.60
2023-02-23T06:52:47.081Z,7.60
2023-02-23T06:55:14.450Z,7.60
2023-02-23T06:57:41.707Z,7.60
2023-02-23T07:00:09.296Z,7.60
2023-02-23T07:02:37.489Z,7.60
2023-02-23T07:05:05.163Z,7.60
2023-02-23T07:07:33.056Z,7.60
2023-02-23T07:10:00.108Z,7.60
2023-02-23T07:12:27.457Z,7.60
2023-02-23T07:14:54.496Z,7.60
2023-02-23T07:17:21.557Z,7.70
2023-02-23T07:19:48.536Z,7.60
2023-02-23T07:22:15.548Z,7.70
2023-02-23T07:24:42.673Z,7.60
2023-02-23T07:27:11.716Z,7.70
2023-02-23T07:29:38.842Z,7.70
2023-02-23T07:32:06.079Z,7.70
2023-02-23T07:34:33.113Z,7.70
2023-02-23T07:37:00.048Z,7.70
2023-02-23T07:39:27.207Z,7.70
2023-02-23T07:41:54.123Z,7.70
2023-02-23T07:44:22.366Z,7.70
2023-02-23T07:46:50.364Z,7.80
2023-02-23T07:49:17.361Z,7.80
2023-02-23T07:51:44.268Z,7.80
2023-02-23T07:54:11.358Z,7.90
2023-02-23T07:56:39.609Z,7.90
2023-02-23T07:59:06.583Z,7.90
2023-02-23T08:01:33.882Z,7.90
2023-02-23T08:04:01.362Z,7.90
2023-02-23T08:06:28.558Z,8.00
2023-02-23T08:08:55.613Z,8.00
2023-02-23T08:11:22.647Z,8.00
2023-02-23T08:13:49.629Z,8.00
2023-02-23T08:16:18.562Z,8.00
2023-02-23T08:18:48.614Z,8.10
2023-02-23T08:21:15.712Z,8.10
2023-02-23T08:23:42.712Z,8.10
2023-02-23T08:26:09.769Z,8.10
2023-02-23T08:28:36.673Z,8.10
2023-02-23T08:31:03.828Z,8.20
2023-02-23T08:33:32.245Z,8.20
2023-02-23T08:36:02.713Z,8.20
2023-02-23T08:38:30.006Z,8.20
2023-02-23T08:41:01.760Z,8.30
2023-02-23T08:43:29.280Z,8.30
2023-02-23T08:45:56.349Z,8.30
2023-02-23T08:48:24.511Z,8.30
2023-02-23T08:50:55.668Z,8.30
2023-02-23T08:53:23.102Z,8.30
2023-02-23T08:55:50.225Z,8.30
2023-02-23T08:58:17.233Z,8.30
2023-02-23T09:00:45.008Z,8.30
2023-02-23T09:03:12.090Z,8.30
2023-02-23T09:05:39.786Z,8.30
2023-02-23T09:08:07.212Z,8.30
2023-02-23T09:10:36.026Z,8.30
2023-02-23T09:13:03.088Z,8.30
2023-02-23T09:15:30.543Z,8.30
2023-02-23T09:18:02.570Z,8.40
2023-02-23T09:20:29.612Z,8.40
2023-02-23T09:22:56.816Z,8.40
2023-02-23T09:25:24.424Z,8.40
2023-02-23T09:27:57.074Z,8.50
2023-02-23T09:30:24.242Z,8.50
2023-02-23T09:32:51.672Z,8.60
2023-02-23T09:35:20.585Z,8.60
2023-02-23T09:37:49.234Z,8.60
2023-02-23T09:40:23.150Z,8.60
2023-02-23T09:43:02.032Z,8.60
2023-02-23T09:45:42.609Z,8.70
2023-02-23T09:48:29.874Z,8.60
2023-02-23T09:50:59.947Z,8.70
2023-02-23T09:53:44.169Z,8.70
2023-02-23T09:56:30.176Z,8.80
2023-02-23T09:58:57.427Z,8.80
2023-02-23T10:01:41.046Z,8.80
2023-02-23T10:04:38.880Z,8.90
2023-02-23T10:07:17.969Z,9.00
2023-02-23T10:10:07.549Z,9.00
2023-02-23T10:12:34.544Z,9.00
2023-02-23T10:15:14.643Z,9.00
2023-02-23T10:17:53.909Z,8.90
2023-02-23T10:20:39.862Z,9.00
2023-02-23T10:23:13.163Z,9.00
2023-02-23T10:25:46.845Z,9.00
2023-02-23T10:28:17.548Z,9.00
2023-02-23T10:30:47.853Z,9.10
2023-02-23T10:33:36.246Z,9.10
2023-02-23T10:36:24.481Z,9.10
2023-02-23T10:38:51.568Z,9.20
2023-02-23T10:41:18.851Z,9.20
2023-02-23T10:43:47.651Z,9.20
2023-02-23T10:46:24.972Z,9.40
2023-02-23T10:48:56.250Z,9.40
2023-02-23T10:51:30.216Z,9.50
2023-02-23T10:53:57.766Z,9.30
2023-02-23T10:56:27.378Z,9.40
2023-02-23T10:58:58.167Z,9.50
2023-02-23T11:02:00.466Z,9.50
2023-02-23T11:04:31.343Z,9.40
2023-02-23T11:07:15.281Z,9.40
2023-02-23T11:09:47.078Z,9.50
2023-02-23T11:12:37.807Z,9.60
2023-02-23T11:15:35.297Z,9.60
2023-02-23T11:18:07.365Z,9.60
2023-02-23T11:20:41.786Z,9.60
2023-02-23T11:23:30.315Z,9.60
2023-02-23T11:26:03.576Z,9.70
2023-02-23T11:28:34.782Z,9.70
2023-02-23T11:31:09.256Z,9.70
2023-02-23T11:33:39.985Z,9.60
2023-02-23T11:36:14.841Z,9.60
2023-02-23T11:38:41.752Z,9.60
2023-02-23T11:41:26.557Z,9.60
2023-02-23T11:44:04.307Z,9.70
2023-02-23T11:46:37.894Z,9.90
2023-02-23T11:49:14.811Z,10.00
2023-02-23T11:51:49.282Z,10.20
2023-02-23T11:54:27.377Z,10.20
2023-02-23T11:56:58.194Z,10.30
2023-02-23T11:59:35.583Z,10.40
2023-02-23T12:02:23.005Z,10.40
2023-02-23T12:05:05.124Z,10.40
2023-02-23T12:08:06.938Z,10.40
2023-02-23T12:10:33.958Z,10.30
2023-02-23T12:13:14.825Z,10.40
2023-02-23T12:15:54.842Z,10.50
2023-02-23T12:18:47.757Z,10.50
2023-02-23T12:21:20.907Z,10.40
2023-02-23T12:23:50.819Z,10.30
2023-02-23T12:26:23.227Z,10.30
2023-02-23T12:28:58.757Z,10.20
2023-02-23T12:31:40.890Z,10.10
2023-02-23T12:34:26.844Z,10.10
2023-02-23T12:37:01.343Z,9.90
2023-02-23T12:39:43.521Z,9.80
2023-02-23T12:42:20.480Z,9.60
2023-02-23T12:44:50.156Z,9.60
2023-02-23T12:47:32.562Z,9.60
2023-02-23T12:50:13.615Z,9.60
2023-02-23T12:53:12.565Z,9.70
2023-02-23T12:56:04.509Z,9.80
2023-02-23T12:59:03.270Z,9.80
2023-02-23T13:01:52.120Z,9.60
2023-02-23T13:04:24.716Z,9.60
2023-02-23T13:07:24.549Z,9.50
2023-02-23T13:10:14.693Z,9.50
2023-02-23T13:13:06.405Z,9.40
2023-02-23T13:15:59.587Z,9.30
2023-02-23T13:18:36.409Z,9.30
2023-02-23T13:21:21.100Z,9.40
2023-02-23T13:24:11.296Z,9.30
2023-02-23T13:27:00.420Z,9.30
2023-02-23T13:29:36.743Z,9.30
2023-02-23T13:32:10.119Z,9.30
2023-02-23T13:34:44.453Z,9.40
2023-02-23T13:37:15.326Z,9.40
2023-02-23T13:39:48.910Z,9.40
2023-02-23T13:42:21.911Z,9.40
2023-02-23T13:44:52.245Z,9.40
2023-02-23T13:47:35.159Z,9.40
2023-02-23T13:50:22.798Z,9.40
2023-02-23T13:52:55.683Z,9.40
2023-02-23T13:55:40.041Z,9.40
2023-02-23T13:58:17.379Z,9.40
2023-02-23T14:00:50.776Z,9.40
2023-02-23T14:03:28.172Z,9.40
2023-02-23T14:06:00.431Z,9.40
2023-02-23T14:08:39.051Z,9.30
2023-02-23T14:11:07.067Z,9.30
2023-02-23T14:13:40.462Z,9.40
2023-02-23T14:16:10.804Z,9.50
2023-02-23T14:19:14.005Z,9.60
2023-02-23T14:21:57.573Z,9.60
2023-02-23T14:24:28.526Z,9.70
2023-02-23T14:27:06.576Z,9.70
2023-02-23T14:30:17.045Z,9.70
2023-02-23T14:32:47.854Z,9.80
2023-02-23T14:35:36.688Z,9.80
2023-02-23T14:38:11.069Z,9.80
2023-02-23T14:40:46.623Z,9.70
2023-02-23T14:43:42.239Z,9.70
2023-02-23T14:46:23.616Z,9.60
2023-02-23T14:49:10.547Z,9.70
2023-02-23T14:51:42.619Z,9.70
2023-02-23T14:54:22.457Z,9.70
2023-02-23T14:56:52.677Z,9.60
2023-02-23T14:59:22.841Z,9.60
2023-02-23T15:01:52.128Z,9.70
2023-02-23T15:04:23.414Z,9.70
2023-02-23T15:06:58.218Z,9.70
2023-02-23T15:09:42.685Z,9.70
2023-02-23T15:12:22.696Z,9.70
2023-02-23T15:14:52.025Z,9.70
2023-02-23T15:17:23.378Z,9.70
2023-02-23T15:20:14.419Z,9.60
2023-02-23T15:22:45.801Z,9.50
2023-02-23T15:25:19.236Z,9.50
2023-02-23T15:27:48.219Z,9.60
2023-02-23T15:30:32.891Z,9.60
2023-02-23T15:33:05.356Z,9.60
2023-02-23T15:36:05.990Z,9.70
2023-02-23T15:38:43.812Z,9.70
2023-02-23T15:41:28.298Z,9.70
2023-02-23T15:44:24.176Z,9.70
2023-02-23T15:46:58.874Z,9.70
2023-02-23T15:49:32.728Z,9.70
2023-02-23T15:52:06.864Z,9.70
2023-02-23T15:54:56.567Z,9.60
2023-02-23T15:57:43.870Z,9.60
2023-02-23T16:00:20.144Z,9.60
2023-02-23T16:02:48.963Z,9.60
2023-02-23T16:05:21.785Z,9.50
2023-02-23T16:07:48.996Z,9.50
2023-02-23T16:10:25.780Z,9.50
2023-02-23T16:12:55.344Z,9.50
2023-02-23T16:15:33.084Z,9.40
2023-02-23T16:18:06.460Z,9.40
2023-02-23T16:20:38.719Z,9.40
2023-02-23T16:23:11.721Z,9.40
2023-02-23T16:25:44.491Z,9.40
2023-02-23T16:28:21.448Z,9.40
2023-02-23T16:30:59.219Z,9.40
2023-02-23T16:33:29.010Z,9.30
2023-02-23T16:36:08.619Z,9.30
2023-02-23T16:38:53.069Z,9.30
2023-02-23T16:41:22.126Z,9.30
2023-02-23T16:43:50.876Z,9.30
2023-02-23T16:46:18.289Z,9.30
2023-02-23T16:48:45.810Z,9.30
2023-02-23T16:51:18.804Z,9.30
2023-02-23T16:53:46.235Z,9.30
2023-02-23T16:56:21.116Z,9.20
2023-02-23T16:58:57.761Z,9.20
2023-02-23T17:01:25.929Z,9.20
2023-02-23T17:03:54.520Z,9.20
2023-02-23T17:06:22.865Z,9.00
2023-02-23T17:08:58.284Z,8.90
2023-02-23T17:11:26.172Z,8.90
2023-02-23T17:13:53.175Z,8.70
2023-02-23T17:16:20.683Z,8.60
2023-02-23T17:18:49.367Z,8.60
2023-02-23T17:21:23.162Z,8.50
2023-02-23T17:23:51.718Z,8.50
2023-02-23T17:26:24.786Z,8.50
2023-02-23T17:28:52.214Z,8.40
2023-02-23T17:31:20.882Z,8.30
2023-02-23T17:33:48.393Z,8.20
2023-02-23T17:36:17.863Z,8.20
2023-02-23T17:38:45.232Z,8.10
2023-02-23T17:41:21.283Z,8.00
2023-02-23T17:43:48.579Z,8.00
2023-02-23T17:46:15.660Z,8.00
2023-02-23T17:48:47.333Z,8.00
2023-02-23T17:51:16.889Z,8.00
2023-02-23T17:53:44.520Z,8.00
2023-02-23T17:56:13.951Z,8.00
2023-02-23T17:58:43.552Z,8.00
2023-02-23T18:01:10.660Z,8.00
2023-02-23T18:03:38.062Z,8.00
2023-02-23T18:06:08.374Z,8.00
2023-02-23T18:08:37.911Z,8.00
2023-02-23T18:11:05.568Z,7.90
2023-02-23T18:13:35.987Z,7.90
2023-02-23T18:16:09.569Z,7.90
2023-02-23T18:18:39.104Z,8.00
2023-02-23T18:21:18.307Z,7.90
2023-02-23T18:23:48.543Z,7.90
2023-02-23T18:26:18.755Z,7.90
2023-02-23T18:28:48.936Z,7.90
2023-02-23T18:31:19.837Z,7.80
2023-02-23T18:33:49.978Z,7.80
2023-02-23T18:36:24.764Z,7.70
2023-02-23T18:38:54.634Z,7.70
2023-02-23T18:41:22.647Z,7.60
2023-02-23T18:43:49.797Z,7.60
2023-02-23T18:46:17.134Z,7.40
2023-02-23T18:48:44.702Z,7.40
2023-02-23T18:51:14.674Z,7.40
2023-02-23T18:53:42.281Z,7.40
2023-02-23T18:56:15.714Z,7.40
2023-02-23T18:58:45.080Z,7.30
2023-02-23T19:01:22.206Z,7.40
2023-02-23T19:03:52.677Z,7.40
2023-02-23T19:06:25.374Z,7.30
2023-02-23T19:08:56.495Z,7.30
2023-02-23T19:11:28.303Z,7.30
2023-02-23T19:13:57.512Z,7.40
2023-02-23T19:16:25.951Z,7.40
2023-02-23T19:18:55.434Z,7.40
2023-02-23T19:21:22.771Z,7.30
2023-02-23T19:23:50.911Z,7.30
2023-02-23T19:26:19.868Z,7.10
2023-02-23T19:28:47.418Z,7.10
2023-02-23T19:31:19.778Z,7.10
2023-02-23T19:33:49.454Z,7.00
2023-02-23T19:36:19.704Z,7.00
2023-02-23T19:38:47.372Z,7.10
2023-02-23T19:41:20.242Z,7.10
2023-02-23T19:43:47.653Z,7.10
2023-02-23T19:46:18.673Z,7.10
2023-02-23T19:48:52.858Z,7.10
2023-02-23T19:51:20.259Z,7.00
2023-02-23T19:53:47.561Z,6.90
2023-02-23T19:56:18.147Z,6.90
2023-02-23T19:58:46.855Z,7.00
2023-02-23T20:01:19.438Z,6.90
2023-02-23T20:03:55.286Z,6.90
2023-02-23T20:06:30.525Z,6.90
2023-02-23T20:09:02.618Z,6.80
2023-02-23T20:11:30.078Z,6.80
2023-02-23T20:13:58.069Z,6.80
2023-02-23T20:16:29.758Z,6.70
2023-02-23T20:19:00.593Z,6.70
2023-02-23T20:21:30.679Z,6.60
2023-02-23T20:24:01.627Z,6.60
2023-02-23T20:26:35.636Z,6.60
2023-02-23T20:29:05.076Z,6.60
2023-02-23T20:31:35.742Z,6.60
2023-02-23T20:34:06.632Z,6.50
2023-02-23T20:36:34.236Z,6.50
2023-02-23T20:39:01.556Z,6.50
2023-02-23T20:41:29.861Z,6.50
2023-02-23T20:44:00.865Z,6.50
2023-02-23T20:46:30.610Z,6.50
2023-02-23T20:48:59.573Z,6.30
2023-02-23T20:51:28.416Z,6.30
2023-02-23T20:53:56.171Z,6.20
2023-02-23T20:56:23.456Z,6.30
2023-02-23T20:58:50.901Z,6.20
2023-02-23T21:01:22.950Z,6.20
2023-02-23T21:03:51.708Z,6.20
2023-02-23T21:06:20.225Z,6.10
2023-02-23T21:08:51.446Z,6.20
2023-02-23T21:11:22.702Z,6.10
2023-02-23T21:13:51.952Z,6.00
2023-02-23T21:16:20.229Z,6.00
2023-02-23T21:19:04.407Z,5.90
2023-02-23T21:21:43.662Z,5.90
2023-02-23T21:24:11.137Z,5.80
2023-02-23T21:26:44.816Z,5.80
2023-02-23T21:29:15.553Z,5.80
2023-02-23T21:31:46.866Z,5.70
2023-02-23T21:34:21.482Z,5.70
2023-02-23T21:36:50.153Z,5.70
2023-02-23T21:39:17.361Z,5.70
2023-02-23T21:41:44.389Z,5.60
2023-02-23T21:44:12.071Z,5.50
2023-02-23T21:46:40.582Z,5.50
2023-02-23T21:49:09.860Z,5.50
2023-02-23T21:51:37.411Z,5.50
2023-02-23T21:54:05.651Z,5.50
2023-02-23T21:56:35.006Z,5.50
2023-02-23T21:59:02.837Z,5.50
2023-02-23T22:01:35.146Z,5.50
2023-02-23T22:04:03.875Z,5.50
2023-02-23T22:06:38.959Z,5.50
2023-02-23T22:09:13.964Z,5.40
2023-02-23T22:11:44.582Z,5.40
2023-02-23T22:14:11.995Z,5.50
2023-02-23T22:16:43.241Z,5.40
2023-02-23T22:19:13.335Z,5.40
2023-02-23T22:21:42.248Z,5.40
2023-02-23T22:24:12.045Z,5.40
2023-02-23T22:26:43.697Z,5.30
2023-02-23T22:29:11.072Z,5.30
2023-02-23T22:31:39.222Z,5.20
2023-02-23T22:34:08.008Z,5.30
2023-02-23T22:36:35.751Z,5.20
2023-02-23T22:39:09.236Z,5.30
2023-02-23T22:41:42.418Z,5.30
2023-02-23T22:44:17.096Z,5.20
2023-02-23T22:46:47.976Z,5.30
2023-02-23T22:49:16.154Z,5.20
2023-02-23T22:51:43.985Z,5.20
2023-02-23T22:54:11.967Z,5.20
2023-02-23T22:56:39.830Z,5.10
2023-02-23T22:59:09.950Z,5.00
2023-02-23T23:01:38.994Z,5.00
2023-02-23T23:04:12.358Z,4.90
2023-02-23T23:06:42.149Z,5.00
2023-02-23T23:09:16.558Z,5.00
2023-02-23T23:11:44.437Z,5.00
2023-02-23T23:14:18.439Z,4.90
2023-02-23T23:16:50.249Z,4.90
2023-02-23T23:19:18.616Z,5.00
2023-02-23T23:21:46.534Z,4.90
2023-02-23T23:24:15.771Z,5.00
2023-02-23T23:26:44.527Z,4.90
2023-02-23T23:29:14.476Z,4.90
2023-02-23T23:31:45.868Z,4.90
2023-02-23T23:34:16.731Z,4.70
2023-02-23T23:36:48.829Z,4.70
2023-02-23T23:39:20.918Z,4.80
2023-02-23T23:41:49.256Z,4.80
2023-02-23T23:44:18.615Z,4.80
2023-02-23T23:46:46.429Z,4.70
2023-02-23T23:49:17.200Z,4.80
2023-02-23T23:51:50.402Z,4.80
2023-02-23T23:54:21.692Z,4.70
2023-02-23T23:56:51.490Z,4.70
2023-02-23T23:59:22.954Z,4.80
